Accueil
METAR-TAF:

METAR-TAF

Aéroports :

Diyarbakır, Turquie

latitude: 37-53N, longitude: 040-11E, altitude: 686 m

Observation

Le bulletin a été fait il y a 34 minutes, à 16:50 UTC
Vent 3 kt de ouest, variant entre ouest/sud-ouest et ouest/nord-ouest
Température 7°C
Humidité 76%
Pression 1022 hPa
Visibilité 10 km ou plus
pas de nuages en-dessous de 1500 mètres et pas de cumulonimbus.

METAR: LTCC 031650Z 28003KT 240V300 CAVOK 07/03 Q1022 NOSIG RMK RWY16 VRB02KT

Heure: 20:24 (17:24 UTC)

Prévision

Le bulletin a été fait il y a 6 heures et 44 minutes, à 10:40 UTC
Prévision valable du 03 à 12 UTC au 04 à 12 UTC
Vent 2 kt de direction variable
Visibilité 10 km ou plus
pas de nuages en-dessous de 1500 mètres et pas de cumulonimbus.

TAF: LTCC 031040Z 0312/0412 VRB02KT CAVOK

Observations et prévisions météorologiques de plus de 4000 aéroports (messages METAR et TAF).

Les stations disponibles sont représentées par des disques jaunes et rouges sur la carte.

Passer la souris dessus pour voir le nom de la station.

Cliquer dessus pour voir les observations et prévisions météorologiques.

Pour changer de carte: cliquez sur les boutons verts avec une croix noire pour zoomer, sur le bouton vert avec un tiret pour effectuer un zoom arrière, ou sur les flèches vertes pour les cartes adjacentes.


METAR-TAF: